sensor_id;sensor_type;location;lat;lon;timestamp;P1;durP1;ratioP1;P2;durP2;ratioP2
75316;SDS011;63913;51.492;10.368;2024-02-26T00:01:27;1.42;;;1.20;;
75316;SDS011;63913;51.492;10.368;2024-02-26T00:03:52;2.85;;;1.00;;
75316;SDS011;63913;51.492;10.368;2024-02-26T00:06:20;1.52;;;0.93;;
75316;SDS011;63913;51.492;10.368;2024-02-26T00:08:45;2.17;;;1.10;;
75316;SDS011;63913;51.492;10.368;2024-02-26T00:11:11;2.25;;;1.20;;
75316;SDS011;63913;51.492;10.368;2024-02-26T00:13:36;3.15;;;1.10;;
75316;SDS011;63913;51.492;10.368;2024-02-26T00:16:02;1.10;;;1.10;;
75316;SDS011;63913;51.492;10.368;2024-02-26T00:18:28;2.13;;;1.10;;
75316;SDS011;63913;51.492;10.368;2024-02-26T00:20:54;2.33;;;1.33;;
75316;SDS011;63913;51.492;10.368;2024-02-26T00:23:19;3.13;;;1.70;;
75316;SDS011;63913;51.492;10.368;2024-02-26T00:25:44;2.75;;;1.10;;
75316;SDS011;63913;51.492;10.368;2024-02-26T00:28:10;1.27;;;1.02;;
75316;SDS011;63913;51.492;10.368;2024-02-26T00:30:35;1.15;;;1.00;;
75316;SDS011;63913;51.492;10.368;2024-02-26T00:33:01;1.27;;;1.17;;
75316;SDS011;63913;51.492;10.368;2024-02-26T00:35:26;1.77;;;1.30;;
75316;SDS011;63913;51.492;10.368;2024-02-26T00:37:52;2.38;;;1.30;;
75316;SDS011;63913;51.492;10.368;2024-02-26T00:40:17;1.27;;;1.17;;
75316;SDS011;63913;51.492;10.368;2024-02-26T00:42:43;1.40;;;1.20;;
75316;SDS011;63913;51.492;10.368;2024-02-26T00:45:11;1.55;;;1.15;;
75316;SDS011;63913;51.492;10.368;2024-02-26T00:47:37;1.83;;;1.33;;
75316;SDS011;63913;51.492;10.368;2024-02-26T00:50:03;1.10;;;1.00;;
75316;SDS011;63913;51.492;10.368;2024-02-26T00:52:28;1.95;;;1.27;;
75316;SDS011;63913;51.492;10.368;2024-02-26T00:54:53;1.67;;;1.30;;
75316;SDS011;63913;51.492;10.368;2024-02-26T00:57:19;2.88;;;1.75;;
75316;SDS011;63913;51.492;10.368;2024-02-26T00:59:44;2.60;;;1.40;;
75316;SDS011;63913;51.492;10.368;2024-02-26T01:02:09;1.98;;;1.35;;
75316;SDS011;63913;51.492;10.368;2024-02-26T01:04:35;1.90;;;1.50;;
75316;SDS011;63913;51.492;10.368;2024-02-26T01:07:00;2.23;;;1.20;;
75316;SDS011;63913;51.492;10.368;2024-02-26T01:09:25;3.28;;;1.58;;
75316;SDS011;63913;51.492;10.368;2024-02-26T01:11:51;1.50;;;1.20;;
75316;SDS011;63913;51.492;10.368;2024-02-26T01:14:16;1.30;;;1.20;;
75316;SDS011;63913;51.492;10.368;2024-02-26T01:16:41;1.88;;;1.33;;
75316;SDS011;63913;51.492;10.368;2024-02-26T01:19:07;1.40;;;1.20;;
75316;SDS011;63913;51.492;10.368;2024-02-26T01:21:32;3.47;;;1.40;;
75316;SDS011;63913;51.492;10.368;2024-02-26T01:23:57;2.22;;;1.20;;
75316;SDS011;63913;51.492;10.368;2024-02-26T01:26:23;2.25;;;1.17;;
75316;SDS011;63913;51.492;10.368;2024-02-26T01:28:48;2.15;;;1.30;;
75316;SDS011;63913;51.492;10.368;2024-02-26T01:31:14;1.80;;;1.20;;
75316;SDS011;63913;51.492;10.368;2024-02-26T01:33:39;2.63;;;1.50;;
75316;SDS011;63913;51.492;10.368;2024-02-26T01:36:05;1.30;;;1.20;;
75316;SDS011;63913;51.492;10.368;2024-02-26T01:38:30;2.65;;;1.67;;
75316;SDS011;63913;51.492;10.368;2024-02-26T01:40:56;1.17;;;1.07;;
75316;SDS011;63913;51.492;10.368;2024-02-26T01:43:21;1.55;;;1.10;;
75316;SDS011;63913;51.492;10.368;2024-02-26T01:45:47;1.58;;;1.23;;
75316;SDS011;63913;51.492;10.368;2024-02-26T01:48:12;1.47;;;1.20;;
75316;SDS011;63913;51.492;10.368;2024-02-26T01:50:37;1.58;;;1.13;;
75316;SDS011;63913;51.492;10.368;2024-02-26T01:53:04;1.27;;;1.10;;
75316;SDS011;63913;51.492;10.368;2024-02-26T01:55:30;2.20;;;1.30;;
75316;SDS011;63913;51.492;10.368;2024-02-26T01:57:56;2.35;;;1.45;;
75316;SDS011;63913;51.492;10.368;2024-02-26T02:00:21;2.13;;;1.40;;
75316;SDS011;63913;51.492;10.368;2024-02-26T02:02:47;1.27;;;1.00;;
75316;SDS011;63913;51.492;10.368;2024-02-26T02:05:15;3.00;;;1.30;;
75316;SDS011;63913;51.492;10.368;2024-02-26T02:07:43;2.33;;;1.10;;
75316;SDS011;63913;51.492;10.368;2024-02-26T02:10:09;1.80;;;1.17;;
75316;SDS011;63913;51.492;10.368;2024-02-26T02:12:35;1.88;;;1.27;;
75316;SDS011;63913;51.492;10.368;2024-02-26T02:15:03;2.80;;;1.00;;
75316;SDS011;63913;51.492;10.368;2024-02-26T02:17:30;1.50;;;1.13;;
75316;SDS011;63913;51.492;10.368;2024-02-26T02:19:56;1.23;;;1.10;;
75316;SDS011;63913;51.492;10.368;2024-02-26T02:22:21;1.58;;;1.27;;
75316;SDS011;63913;51.492;10.368;2024-02-26T02:24:47;2.60;;;1.50;;
75316;SDS011;63913;51.492;10.368;2024-02-26T02:27:13;2.65;;;1.13;;
75316;SDS011;63913;51.492;10.368;2024-02-26T02:29:39;1.90;;;1.23;;
75316;SDS011;63913;51.492;10.368;2024-02-26T02:32:04;1.33;;;1.10;;
75316;SDS011;63913;51.492;10.368;2024-02-26T02:34:30;2.10;;;1.33;;
75316;SDS011;63913;51.492;10.368;2024-02-26T02:36:57;2.03;;;1.20;;
75316;SDS011;63913;51.492;10.368;2024-02-26T02:39:23;2.20;;;1.60;;
75316;SDS011;63913;51.492;10.368;2024-02-26T02:41:48;2.25;;;1.30;;
75316;SDS011;63913;51.492;10.368;2024-02-26T02:44:14;2.40;;;1.30;;
75316;SDS011;63913;51.492;10.368;2024-02-26T02:46:39;2.45;;;1.50;;
75316;SDS011;63913;51.492;10.368;2024-02-26T02:49:08;1.50;;;1.15;;
75316;SDS011;63913;51.492;10.368;2024-02-26T02:51:36;1.73;;;1.17;;
75316;SDS011;63913;51.492;10.368;2024-02-26T02:54:02;2.47;;;1.50;;
75316;SDS011;63913;51.492;10.368;2024-02-26T02:56:28;2.42;;;1.58;;
75316;SDS011;63913;51.492;10.368;2024-02-26T02:58:53;1.85;;;1.50;;
75316;SDS011;63913;51.492;10.368;2024-02-26T03:01:18;2.03;;;1.70;;
75316;SDS011;63913;51.492;10.368;2024-02-26T03:03:44;3.25;;;1.75;;
75316;SDS011;63913;51.492;10.368;2024-02-26T03:06:09;4.15;;;2.20;;
75316;SDS011;63913;51.492;10.368;2024-02-26T03:08:34;2.20;;;1.50;;
75316;SDS011;63913;51.492;10.368;2024-02-26T03:11:03;3.60;;;1.73;;
75316;SDS011;63913;51.492;10.368;2024-02-26T03:13:29;2.78;;;1.70;;
75316;SDS011;63913;51.492;10.368;2024-02-26T03:15:54;2.95;;;1.90;;
75316;SDS011;63913;51.492;10.368;2024-02-26T03:18:19;2.42;;;1.70;;
75316;SDS011;63913;51.492;10.368;2024-02-26T03:20:45;3.28;;;1.50;;
75316;SDS011;63913;51.492;10.368;2024-02-26T03:23:10;2.78;;;1.88;;
75316;SDS011;63913;51.492;10.368;2024-02-26T03:25:38;2.88;;;1.88;;
75316;SDS011;63913;51.492;10.368;2024-02-26T03:28:03;2.25;;;1.60;;
75316;SDS011;63913;51.492;10.368;2024-02-26T03:30:29;2.70;;;1.83;;
75316;SDS011;63913;51.492;10.368;2024-02-26T03:32:54;3.17;;;1.95;;
75316;SDS011;63913;51.492;10.368;2024-02-26T03:35:20;2.87;;;1.97;;
75316;SDS011;63913;51.492;10.368;2024-02-26T03:37:46;2.72;;;1.60;;
75316;SDS011;63913;51.492;10.368;2024-02-26T03:40:12;3.25;;;1.83;;
75316;SDS011;63913;51.492;10.368;2024-02-26T03:42:39;4.65;;;2.03;;
75316;SDS011;63913;51.492;10.368;2024-02-26T03:45:05;2.22;;;1.70;;
75316;SDS011;63913;51.492;10.368;2024-02-26T03:47:31;3.47;;;1.80;;
75316;SDS011;63913;51.492;10.368;2024-02-26T03:49:56;3.33;;;2.23;;
75316;SDS011;63913;51.492;10.368;2024-02-26T03:52:21;3.53;;;1.98;;
75316;SDS011;63913;51.492;10.368;2024-02-26T03:54:47;4.40;;;1.80;;
75316;SDS011;63913;51.492;10.368;2024-02-26T03:57:12;4.57;;;2.37;;
75316;SDS011;63913;51.492;10.368;2024-02-26T03:59:37;8.80;;;3.20;;
75316;SDS011;63913;51.492;10.368;2024-02-26T04:02:04;4.68;;;2.45;;
75316;SDS011;63913;51.492;10.368;2024-02-26T04:04:30;5.53;;;2.85;;
75316;SDS011;63913;51.492;10.368;2024-02-26T04:06:58;8.30;;;3.30;;
75316;SDS011;63913;51.492;10.368;2024-02-26T04:09:24;6.85;;;3.25;;
75316;SDS011;63913;51.492;10.368;2024-02-26T04:11:49;5.97;;;3.35;;
75316;SDS011;63913;51.492;10.368;2024-02-26T04:14:14;8.82;;;4.25;;
75316;SDS011;63913;51.492;10.368;2024-02-26T04:16:40;9.77;;;4.32;;
75316;SDS011;63913;51.492;10.368;2024-02-26T04:19:05;9.07;;;4.03;;
75316;SDS011;63913;51.492;10.368;2024-02-26T04:21:31;9.15;;;4.93;;
75316;SDS011;63913;51.492;10.368;2024-02-26T04:23:57;11.88;;;5.18;;
75316;SDS011;63913;51.492;10.368;2024-02-26T04:26:26;12.95;;;5.45;;
75316;SDS011;63913;51.492;10.368;2024-02-26T04:28:51;14.75;;;6.32;;
75316;SDS011;63913;51.492;10.368;2024-02-26T04:31:18;13.85;;;6.22;;
75316;SDS011;63913;51.492;10.368;2024-02-26T04:33:43;13.85;;;5.93;;
75316;SDS011;63913;51.492;10.368;2024-02-26T04:36:13;15.40;;;6.68;;
75316;SDS011;63913;51.492;10.368;2024-02-26T04:38:40;14.43;;;6.53;;
75316;SDS011;63913;51.492;10.368;2024-02-26T04:41:06;17.00;;;6.55;;
75316;SDS011;63913;51.492;10.368;2024-02-26T04:43:31;15.77;;;6.28;;
75316;SDS011;63913;51.492;10.368;2024-02-26T04:45:57;14.57;;;6.50;;
75316;SDS011;63913;51.492;10.368;2024-02-26T04:48:22;15.75;;;6.25;;
75316;SDS011;63913;51.492;10.368;2024-02-26T04:50:48;16.83;;;6.68;;
75316;SDS011;63913;51.492;10.368;2024-02-26T04:53:13;14.63;;;7.18;;
75316;SDS011;63913;51.492;10.368;2024-02-26T04:55:39;14.05;;;6.60;;
75316;SDS011;63913;51.492;10.368;2024-02-26T04:58:04;18.13;;;7.43;;
75316;SDS011;63913;51.492;10.368;2024-02-26T05:00:29;15.77;;;6.97;;
75316;SDS011;63913;51.492;10.368;2024-02-26T05:02:55;17.20;;;7.68;;
75316;SDS011;63913;51.492;10.368;2024-02-26T05:05:20;14.75;;;6.63;;
75316;SDS011;63913;51.492;10.368;2024-02-26T05:07:45;20.00;;;7.55;;
75316;SDS011;63913;51.492;10.368;2024-02-26T05:10:11;17.70;;;7.20;;
75316;SDS011;63913;51.492;10.368;2024-02-26T05:12:36;18.43;;;7.60;;
75316;SDS011;63913;51.492;10.368;2024-02-26T05:15:02;19.63;;;8.57;;
75316;SDS011;63913;51.492;10.368;2024-02-26T05:17:28;21.92;;;8.55;;
75316;SDS011;63913;51.492;10.368;2024-02-26T05:19:53;20.10;;;8.10;;
75316;SDS011;63913;51.492;10.368;2024-02-26T05:22:19;19.10;;;7.88;;
75316;SDS011;63913;51.492;10.368;2024-02-26T05:24:45;22.70;;;8.60;;
75316;SDS011;63913;51.492;10.368;2024-02-26T05:27:10;20.70;;;7.82;;
75316;SDS011;63913;51.492;10.368;2024-02-26T05:29:37;18.88;;;8.80;;
75316;SDS011;63913;51.492;10.368;2024-02-26T05:32:03;18.75;;;8.75;;
75316;SDS011;63913;51.492;10.368;2024-02-26T05:34:29;17.13;;;7.47;;
75316;SDS011;63913;51.492;10.368;2024-02-26T05:36:55;20.60;;;8.63;;
75316;SDS011;63913;51.492;10.368;2024-02-26T05:39:20;17.25;;;7.18;;
75316;SDS011;63913;51.492;10.368;2024-02-26T05:41:46;19.87;;;7.80;;
75316;SDS011;63913;51.492;10.368;2024-02-26T05:44:11;18.40;;;7.90;;
75316;SDS011;63913;51.492;10.368;2024-02-26T05:46:36;20.52;;;8.23;;
75316;SDS011;63913;51.492;10.368;2024-02-26T05:49:02;18.87;;;8.03;;
75316;SDS011;63913;51.492;10.368;2024-02-26T05:51:28;19.55;;;7.80;;
75316;SDS011;63913;51.492;10.368;2024-02-26T05:53:53;20.38;;;8.30;;
75316;SDS011;63913;51.492;10.368;2024-02-26T05:56:22;18.20;;;8.20;;
75316;SDS011;63913;51.492;10.368;2024-02-26T05:58:51;20.02;;;8.23;;
75316;SDS011;63913;51.492;10.368;2024-02-26T06:01:17;18.38;;;7.50;;
75316;SDS011;63913;51.492;10.368;2024-02-26T06:03:43;17.30;;;7.55;;
75316;SDS011;63913;51.492;10.368;2024-02-26T06:06:09;17.55;;;7.78;;
75316;SDS011;63913;51.492;10.368;2024-02-26T06:08:35;15.10;;;7.32;;
75316;SDS011;63913;51.492;10.368;2024-02-26T06:11:04;17.08;;;7.45;;
75316;SDS011;63913;51.492;10.368;2024-02-26T06:13:31;15.30;;;6.50;;
75316;SDS011;63913;51.492;10.368;2024-02-26T06:15:56;18.97;;;7.37;;
75316;SDS011;63913;51.492;10.368;2024-02-26T06:18:22;15.82;;;7.03;;
75316;SDS011;63913;51.492;10.368;2024-02-26T06:20:47;15.97;;;6.93;;
75316;SDS011;63913;51.492;10.368;2024-02-26T06:23:13;18.40;;;7.75;;
75316;SDS011;63913;51.492;10.368;2024-02-26T06:25:38;16.92;;;7.65;;
75316;SDS011;63913;51.492;10.368;2024-02-26T06:28:04;15.95;;;6.88;;
75316;SDS011;63913;51.492;10.368;2024-02-26T06:30:29;18.60;;;6.90;;
75316;SDS011;63913;51.492;10.368;2024-02-26T06:32:55;13.70;;;5.88;;
75316;SDS011;63913;51.492;10.368;2024-02-26T06:35:20;15.13;;;6.27;;
75316;SDS011;63913;51.492;10.368;2024-02-26T06:37:45;14.20;;;6.33;;
75316;SDS011;63913;51.492;10.368;2024-02-26T06:40:11;13.13;;;6.18;;
75316;SDS011;63913;51.492;10.368;2024-02-26T06:42:36;15.55;;;5.93;;
75316;SDS011;63913;51.492;10.368;2024-02-26T06:45:02;13.25;;;6.25;;
75316;SDS011;63913;51.492;10.368;2024-02-26T06:47:29;13.10;;;5.95;;
75316;SDS011;63913;51.492;10.368;2024-02-26T06:49:54;11.43;;;5.60;;
75316;SDS011;63913;51.492;10.368;2024-02-26T06:52:23;16.10;;;6.65;;
75316;SDS011;63913;51.492;10.368;2024-02-26T06:54:50;12.68;;;5.70;;
75316;SDS011;63913;51.492;10.368;2024-02-26T06:57:16;14.30;;;5.75;;
75316;SDS011;63913;51.492;10.368;2024-02-26T06:59:41;12.70;;;5.20;;
75316;SDS011;63913;51.492;10.368;2024-02-26T07:02:10;10.80;;;4.80;;
75316;SDS011;63913;51.492;10.368;2024-02-26T07:04:36;11.77;;;5.03;;
75316;SDS011;63913;51.492;10.368;2024-02-26T07:07:02;12.27;;;5.13;;
75316;SDS011;63913;51.492;10.368;2024-02-26T07:09:27;13.48;;;4.93;;
75316;SDS011;63913;51.492;10.368;2024-02-26T07:11:53;9.70;;;4.40;;
75316;SDS011;63913;51.492;10.368;2024-02-26T07:14:18;10.90;;;4.60;;
75316;SDS011;63913;51.492;10.368;2024-02-26T07:16:43;10.68;;;4.68;;
75316;SDS011;63913;51.492;10.368;2024-02-26T07:19:09;7.45;;;3.92;;
75316;SDS011;63913;51.492;10.368;2024-02-26T07:21:34;9.13;;;4.03;;
75316;SDS011;63913;51.492;10.368;2024-02-26T07:23:59;11.02;;;4.55;;
75316;SDS011;63913;51.492;10.368;2024-02-26T07:26:25;10.83;;;4.10;;
75316;SDS011;63913;51.492;10.368;2024-02-26T07:28:51;9.68;;;4.07;;
75316;SDS011;63913;51.492;10.368;2024-02-26T07:31:19;8.70;;;4.22;;
75316;SDS011;63913;51.492;10.368;2024-02-26T07:33:45;7.32;;;3.80;;
75316;SDS011;63913;51.492;10.368;2024-02-26T07:36:10;8.20;;;4.07;;
75316;SDS011;63913;51.492;10.368;2024-02-26T07:38:36;8.90;;;4.13;;
75316;SDS011;63913;51.492;10.368;2024-02-26T07:41:02;10.77;;;4.43;;
75316;SDS011;63913;51.492;10.368;2024-02-26T07:43:28;9.85;;;4.25;;
75316;SDS011;63913;51.492;10.368;2024-02-26T07:45:53;9.93;;;4.70;;
75316;SDS011;63913;51.492;10.368;2024-02-26T07:48:19;8.10;;;4.13;;
75316;SDS011;63913;51.492;10.368;2024-02-26T07:50:44;10.55;;;4.63;;
75316;SDS011;63913;51.492;10.368;2024-02-26T07:53:09;8.17;;;4.07;;
75316;SDS011;63913;51.492;10.368;2024-02-26T07:55:36;13.25;;;7.35;;
75316;SDS011;63913;51.492;10.368;2024-02-26T07:58:01;9.50;;;4.68;;
75316;SDS011;63913;51.492;10.368;2024-02-26T08:00:28;8.82;;;4.60;;
75316;SDS011;63913;51.492;10.368;2024-02-26T08:02:53;10.38;;;4.35;;
75316;SDS011;63913;51.492;10.368;2024-02-26T08:05:18;11.77;;;4.80;;
75316;SDS011;63913;51.492;10.368;2024-02-26T08:07:44;9.00;;;5.00;;
75316;SDS011;63913;51.492;10.368;2024-02-26T08:10:09;11.30;;;5.63;;
75316;SDS011;63913;51.492;10.368;2024-02-26T08:12:36;9.77;;;5.30;;
75316;SDS011;63913;51.492;10.368;2024-02-26T08:15:01;13.68;;;5.38;;
75316;SDS011;63913;51.492;10.368;2024-02-26T08:17:27;11.98;;;5.53;;
75316;SDS011;63913;51.492;10.368;2024-02-26T08:19:53;11.07;;;5.25;;
75316;SDS011;63913;51.492;10.368;2024-02-26T08:22:18;10.05;;;4.82;;
75316;SDS011;63913;51.492;10.368;2024-02-26T08:24:44;12.65;;;5.63;;
75316;SDS011;63913;51.492;10.368;2024-02-26T08:27:10;12.88;;;5.68;;
75316;SDS011;63913;51.492;10.368;2024-02-26T08:29:35;10.50;;;4.80;;
75316;SDS011;63913;51.492;10.368;2024-02-26T08:32:01;11.18;;;4.82;;
75316;SDS011;63913;51.492;10.368;2024-02-26T08:34:26;11.57;;;5.28;;
75316;SDS011;63913;51.492;10.368;2024-02-26T08:36:51;10.20;;;5.55;;
75316;SDS011;63913;51.492;10.368;2024-02-26T08:39:17;11.02;;;5.10;;
75316;SDS011;63913;51.492;10.368;2024-02-26T08:41:43;11.90;;;5.53;;
75316;SDS011;63913;51.492;10.368;2024-02-26T08:44:09;11.65;;;5.25;;
75316;SDS011;63913;51.492;10.368;2024-02-26T08:46:35;9.82;;;5.53;;
75316;SDS011;63913;51.492;10.368;2024-02-26T08:49:01;12.00;;;5.53;;
75316;SDS011;63913;51.492;10.368;2024-02-26T08:51:26;11.57;;;5.75;;
75316;SDS011;63913;51.492;10.368;2024-02-26T08:53:52;12.88;;;5.88;;
75316;SDS011;63913;51.492;10.368;2024-02-26T08:56:18;16.60;;;5.93;;
75316;SDS011;63913;51.492;10.368;2024-02-26T08:58:44;13.13;;;5.88;;
75316;SDS011;63913;51.492;10.368;2024-02-26T09:01:14;13.95;;;5.28;;
75316;SDS011;63913;51.492;10.368;2024-02-26T09:03:40;13.15;;;5.32;;
75316;SDS011;63913;51.492;10.368;2024-02-26T09:06:05;11.50;;;6.07;;
75316;SDS011;63913;51.492;10.368;2024-02-26T09:08:32;12.00;;;6.13;;
75316;SDS011;63913;51.492;10.368;2024-02-26T09:10:57;13.98;;;6.22;;
75316;SDS011;63913;51.492;10.368;2024-02-26T09:13:23;13.70;;;6.05;;
75316;SDS011;63913;51.492;10.368;2024-02-26T09:15:48;13.47;;;5.83;;
75316;SDS011;63913;51.492;10.368;2024-02-26T09:18:14;11.32;;;5.55;;
75316;SDS011;63913;51.492;10.368;2024-02-26T09:20:40;11.27;;;5.15;;
75316;SDS011;63913;51.492;10.368;2024-02-26T09:23:06;13.00;;;5.90;;
75316;SDS011;63913;51.492;10.368;2024-02-26T09:25:31;13.20;;;5.95;;
75316;SDS011;63913;51.492;10.368;2024-02-26T09:27:58;10.52;;;5.57;;
75316;SDS011;63913;51.492;10.368;2024-02-26T09:30:24;10.73;;;5.35;;
75316;SDS011;63913;51.492;10.368;2024-02-26T09:32:49;12.80;;;6.18;;
75316;SDS011;63913;51.492;10.368;2024-02-26T09:35:15;12.27;;;5.75;;
75316;SDS011;63913;51.492;10.368;2024-02-26T09:37:40;9.13;;;5.47;;
75316;SDS011;63913;51.492;10.368;2024-02-26T09:40:07;13.77;;;5.53;;
75316;SDS011;63913;51.492;10.368;2024-02-26T09:42:35;13.15;;;5.60;;
75316;SDS011;63913;51.492;10.368;2024-02-26T09:45:01;12.77;;;5.40;;
75316;SDS011;63913;51.492;10.368;2024-02-26T09:47:33;8.00;;;4.88;;
75316;SDS011;63913;51.492;10.368;2024-02-26T09:50:01;12.98;;;5.40;;
75316;SDS011;63913;51.492;10.368;2024-02-26T09:52:28;10.90;;;5.18;;
75316;SDS011;63913;51.492;10.368;2024-02-26T09:54:56;12.13;;;5.18;;
75316;SDS011;63913;51.492;10.368;2024-02-26T09:57:21;13.23;;;5.72;;
75316;SDS011;63913;51.492;10.368;2024-02-26T09:59:49;11.27;;;5.07;;
75316;SDS011;63913;51.492;10.368;2024-02-26T10:02:18;11.55;;;4.93;;
75316;SDS011;63913;51.492;10.368;2024-02-26T10:04:46;11.90;;;6.18;;
75316;SDS011;63913;51.492;10.368;2024-02-26T10:07:12;10.30;;;5.05;;
75316;SDS011;63913;51.492;10.368;2024-02-26T10:09:39;10.63;;;5.72;;
75316;SDS011;63913;51.492;10.368;2024-02-26T10:12:05;10.55;;;5.05;;
75316;SDS011;63913;51.492;10.368;2024-02-26T10:14:33;13.38;;;5.50;;
75316;SDS011;63913;51.492;10.368;2024-02-26T10:16:59;15.10;;;6.60;;
75316;SDS011;63913;51.492;10.368;2024-02-26T10:19:26;11.15;;;5.13;;
75316;SDS011;63913;51.492;10.368;2024-02-26T10:21:56;13.95;;;5.28;;
75316;SDS011;63913;51.492;10.368;2024-02-26T10:24:23;9.38;;;5.22;;
75316;SDS011;63913;51.492;10.368;2024-02-26T10:26:50;11.60;;;5.47;;
75316;SDS011;63913;51.492;10.368;2024-02-26T10:29:17;11.00;;;5.38;;
75316;SDS011;63913;51.492;10.368;2024-02-26T10:31:43;12.52;;;4.97;;
75316;SDS011;63913;51.492;10.368;2024-02-26T10:34:09;10.63;;;5.85;;
75316;SDS011;63913;51.492;10.368;2024-02-26T10:36:35;13.30;;;5.47;;
75316;SDS011;63913;51.492;10.368;2024-02-26T10:39:04;11.48;;;6.45;;
75316;SDS011;63913;51.492;10.368;2024-02-26T10:41:30;9.63;;;5.18;;
75316;SDS011;63913;51.492;10.368;2024-02-26T10:43:55;10.30;;;5.47;;
75316;SDS011;63913;51.492;10.368;2024-02-26T10:46:20;14.05;;;5.65;;
75316;SDS011;63913;51.492;10.368;2024-02-26T10:48:49;13.45;;;5.90;;
75316;SDS011;63913;51.492;10.368;2024-02-26T10:51:16;8.85;;;5.05;;
75316;SDS011;63913;51.492;10.368;2024-02-26T10:53:45;10.00;;;4.97;;
75316;SDS011;63913;51.492;10.368;2024-02-26T10:56:14;11.98;;;5.20;;
75316;SDS011;63913;51.492;10.368;2024-02-26T10:58:41;10.57;;;4.75;;
75316;SDS011;63913;51.492;10.368;2024-02-26T11:01:10;8.48;;;4.95;;
75316;SDS011;63913;51.492;10.368;2024-02-26T11:03:37;12.07;;;5.68;;
75316;SDS011;63913;51.492;10.368;2024-02-26T11:06:04;10.73;;;5.47;;
75316;SDS011;63913;51.492;10.368;2024-02-26T11:08:30;9.60;;;5.30;;
75316;SDS011;63913;51.492;10.368;2024-02-26T11:10:57;10.18;;;5.43;;
75316;SDS011;63913;51.492;10.368;2024-02-26T11:13:23;9.43;;;5.38;;
75316;SDS011;63913;51.492;10.368;2024-02-26T11:15:55;10.00;;;5.28;;
75316;SDS011;63913;51.492;10.368;2024-02-26T11:18:22;9.00;;;5.03;;
75316;SDS011;63913;51.492;10.368;2024-02-26T11:20:48;9.73;;;5.60;;
75316;SDS011;63913;51.492;10.368;2024-02-26T11:23:15;10.68;;;5.50;;
75316;SDS011;63913;51.492;10.368;2024-02-26T11:25:41;7.93;;;4.70;;
75316;SDS011;63913;51.492;10.368;2024-02-26T11:28:09;10.35;;;5.18;;
75316;SDS011;63913;51.492;10.368;2024-02-26T11:30:38;7.53;;;4.82;;
75316;SDS011;63913;51.492;10.368;2024-02-26T11:33:10;10.63;;;4.72;;
75316;SDS011;63913;51.492;10.368;2024-02-26T11:35:37;10.32;;;5.05;;
75316;SDS011;63913;51.492;10.368;2024-02-26T11:38:03;9.90;;;5.43;;
75316;SDS011;63913;51.492;10.368;2024-02-26T11:40:30;12.80;;;5.28;;
75316;SDS011;63913;51.492;10.368;2024-02-26T11:42:57;11.65;;;5.22;;
75316;SDS011;63913;51.492;10.368;2024-02-26T11:48:13;8.35;;;4.75;;
75316;SDS011;63913;51.492;10.368;2024-02-26T11:50:47;7.30;;;4.35;;
75316;SDS011;63913;51.492;10.368;2024-02-26T11:53:27;8.85;;;4.80;;
75316;SDS011;63913;51.492;10.368;2024-02-26T11:56:12;7.95;;;4.43;;
75316;SDS011;63913;51.492;10.368;2024-02-26T11:59:08;8.05;;;4.22;;
75316;SDS011;63913;51.492;10.368;2024-02-26T12:01:42;7.70;;;4.07;;
75316;SDS011;63913;51.492;10.368;2024-02-26T12:04:16;11.95;;;4.45;;
75316;SDS011;63913;51.492;10.368;2024-02-26T12:06:50;12.13;;;4.28;;
75316;SDS011;63913;51.492;10.368;2024-02-26T12:09:30;8.27;;;4.60;;
75316;SDS011;63913;51.492;10.368;2024-02-26T12:11:56;8.80;;;4.00;;
75316;SDS011;63913;51.492;10.368;2024-02-26T12:14:25;8.23;;;4.40;;
75316;SDS011;63913;51.492;10.368;2024-02-26T12:16:50;8.40;;;4.47;;
75316;SDS011;63913;51.492;10.368;2024-02-26T12:19:17;7.47;;;4.20;;
75316;SDS011;63913;51.492;10.368;2024-02-26T12:21:43;8.18;;;4.25;;
75316;SDS011;63913;51.492;10.368;2024-02-26T12:24:09;7.78;;;3.90;;
75316;SDS011;63913;51.492;10.368;2024-02-26T12:26:39;9.20;;;3.97;;
75316;SDS011;63913;51.492;10.368;2024-02-26T12:29:05;7.95;;;3.95;;
75316;SDS011;63913;51.492;10.368;2024-02-26T12:31:31;9.00;;;3.92;;
75316;SDS011;63913;51.492;10.368;2024-02-26T12:33:57;6.45;;;3.60;;
75316;SDS011;63913;51.492;10.368;2024-02-26T12:36:24;7.20;;;4.20;;
75316;SDS011;63913;51.492;10.368;2024-02-26T12:38:50;7.30;;;4.22;;
75316;SDS011;63913;51.492;10.368;2024-02-26T12:41:16;7.15;;;3.70;;
75316;SDS011;63913;51.492;10.368;2024-02-26T12:43:42;9.30;;;5.05;;
75316;SDS011;63913;51.492;10.368;2024-02-26T12:46:07;6.60;;;3.78;;
75316;SDS011;63913;51.492;10.368;2024-02-26T12:48:33;9.35;;;4.18;;
75316;SDS011;63913;51.492;10.368;2024-02-26T12:50:58;12.30;;;5.43;;
75316;SDS011;63913;51.492;10.368;2024-02-26T12:53:24;18.88;;;7.13;;
75316;SDS011;63913;51.492;10.368;2024-02-26T12:55:51;16.27;;;5.10;;
75316;SDS011;63913;51.492;10.368;2024-02-26T12:58:16;9.40;;;4.60;;
75316;SDS011;63913;51.492;10.368;2024-02-26T13:00:43;9.75;;;4.85;;
75316;SDS011;63913;51.492;10.368;2024-02-26T13:03:09;8.45;;;4.80;;
75316;SDS011;63913;51.492;10.368;2024-02-26T13:05:34;8.13;;;4.80;;
75316;SDS011;63913;51.492;10.368;2024-02-26T13:08:04;10.38;;;5.13;;
75316;SDS011;63913;51.492;10.368;2024-02-26T13:10:31;8.18;;;4.60;;
75316;SDS011;63913;51.492;10.368;2024-02-26T13:12:56;9.18;;;4.68;;
75316;SDS011;63913;51.492;10.368;2024-02-26T13:15:22;9.07;;;4.75;;
75316;SDS011;63913;51.492;10.368;2024-02-26T13:17:48;9.38;;;4.72;;
75316;SDS011;63913;51.492;10.368;2024-02-26T13:20:27;10.48;;;5.03;;
75316;SDS011;63913;51.492;10.368;2024-02-26T13:23:02;12.70;;;4.82;;
75316;SDS011;63913;51.492;10.368;2024-02-26T13:25:37;6.60;;;3.72;;
75316;SDS011;63913;51.492;10.368;2024-02-26T13:28:06;11.15;;;5.25;;
75316;SDS011;63913;51.492;10.368;2024-02-26T13:30:34;10.90;;;4.90;;
75316;SDS011;63913;51.492;10.368;2024-02-26T13:33:07;10.93;;;4.35;;
75316;SDS011;63913;51.492;10.368;2024-02-26T13:35:36;7.28;;;4.05;;
75316;SDS011;63913;51.492;10.368;2024-02-26T13:38:04;7.25;;;4.07;;
75316;SDS011;63913;51.492;10.368;2024-02-26T13:40:30;8.32;;;4.50;;
75316;SDS011;63913;51.492;10.368;2024-02-26T13:42:56;8.30;;;4.47;;
75316;SDS011;63913;51.492;10.368;2024-02-26T13:45:21;7.67;;;3.97;;
75316;SDS011;63913;51.492;10.368;2024-02-26T13:47:46;9.03;;;4.27;;
75316;SDS011;63913;51.492;10.368;2024-02-26T13:50:11;8.57;;;4.38;;
75316;SDS011;63913;51.492;10.368;2024-02-26T13:52:37;7.55;;;4.22;;
75316;SDS011;63913;51.492;10.368;2024-02-26T13:55:02;8.45;;;4.13;;
75316;SDS011;63913;51.492;10.368;2024-02-26T13:57:28;7.38;;;4.03;;
75316;SDS011;63913;51.492;10.368;2024-02-26T13:59:54;10.90;;;4.30;;
75316;SDS011;63913;51.492;10.368;2024-02-26T14:02:20;5.63;;;3.88;;
75316;SDS011;63913;51.492;10.368;2024-02-26T14:04:46;6.97;;;3.63;;
75316;SDS011;63913;51.492;10.368;2024-02-26T14:07:12;8.98;;;4.30;;
75316;SDS011;63913;51.492;10.368;2024-02-26T14:09:37;5.88;;;3.75;;
75316;SDS011;63913;51.492;10.368;2024-02-26T14:12:03;8.93;;;4.35;;
75316;SDS011;63913;51.492;10.368;2024-02-26T14:14:29;9.02;;;4.10;;
75316;SDS011;63913;51.492;10.368;2024-02-26T14:16:58;7.30;;;4.18;;
75316;SDS011;63913;51.492;10.368;2024-02-26T14:19:23;6.63;;;3.97;;
75316;SDS011;63913;51.492;10.368;2024-02-26T14:21:49;7.68;;;3.85;;
75316;SDS011;63913;51.492;10.368;2024-02-26T14:24:14;6.87;;;4.00;;
75316;SDS011;63913;51.492;10.368;2024-02-26T14:26:40;8.45;;;3.97;;